Latest Weather Observations for Trangie

IDN60801

Issued at 9:23 am EDT Friday 9 December 2022 (issued every 10 minutes, with the page automatically refreshed every 10 minutes)

About weather observations | Map of weather stations | Latest weather observations for NSW | Other Formats
Station Details ID: 051049 Name: TRANGIE RESEARCH STATION AWS Lat: -31.99 Lon: 147.95 Height: 215.0 m
Data from the previous 72 hours. | See also: Recent months at Trangie
Date/Time
EDT
Temp
°C
App
Temp
°C
Dew
Point
°C
Rel
Hum
%
Delta-T
°C
Wind Press
QNH
hPa
Press
MSL
hPa
Rain since
9am
mm
Dir  Spd
km/h
Gust
km/h
Spd
kts
Gust
kts
09/09:00am 16.8 13.2 3.1 40 6.3 S 11 20 6 11 1014.7 1013.6 0.0
09/08:30am 15.4 12.5 4.5 48 5.1 S 9 15 5 8 1014.5 1013.4 0.0
09/08:00am 13.9 10.7 5.3 56 4.1 S 11 15 6 8 1014.5 1013.4 0.0
09/07:30am 12.3 9.3 5.9 65 3.0 S 11 15 6 8 1014.3 1013.2 0.0
09/07:00am 10.2 7.9 5.6 73 2.1 S 7 11 4 6 1014.0 1012.9 0.0
09/06:30am 8.1 5.2 4.9 80 1.4 SSW 9 13 5 7 1013.7 1012.6 0.0
09/06:00am 7.6 5.0 4.4 80 1.4 S 7 11 4 6 1013.5 1012.4 0.0
09/05:30am 8.1 5.2 4.5 78 1.6 S 9 13 5 7 1013.0 1012.0 0.0
09/05:00am 8.0 5.1 4.4 78 1.6 S 9 13 5 7 1012.7 1011.7 0.0
09/04:30am 8.1 5.6 4.5 78 1.6 S 7 11 4 6 1012.6 1011.6 0.0
09/04:00am 7.9 5.3 4.3 78 1.6 S 7 9 4 5 1012.6 1011.6 0.0
09/03:30am 8.8 5.9 4.8 76 1.8 SSW 9 11 5 6 1012.9 1011.9 0.0
09/03:00am 9.3 6.4 4.7 73 2.1 S 9 11 5 6 1012.8 1011.8 0.0
09/02:30am 9.7 6.8 4.7 71 2.3 S 9 13 5 7 1012.9 1011.9 0.0
09/02:00am 9.9 6.7 5.1 72 2.2 SSW 11 13 6 7 1013.1 1012.1 0.0
09/01:30am 9.7 6.9 5.3 74 2.0 SSW 9 11 5 6 1013.4 1012.3 0.0
09/01:00am 8.7 5.9 5.1 78 1.6 SW 9 11 5 6 1013.7 1012.6 0.0
09/12:30am 9.0 6.1 4.8 75 1.9 SW 9 11 5 6 1013.8 1012.7 0.0
09/12:00am 10.2 7.4 5.0 70 2.4 SSW 9 11 5 6 1013.9 1012.8 0.0
 
Date/Time
EDT
Temp
°C
App
Temp
°C
Dew
Point
°C
Rel
Hum
%
Delta-T
°C
Wind Press
QNH
hPa
Press
MSL
hPa
Rain since
9am
mm
Dir  Spd
km/h
Gust
km/h
Spd
kts
Gust
kts
08/11:30pm 11.2 8.0 4.9 65 2.9 SW 11 13 6 7 1013.9 1012.8 0.0
08/11:00pm 11.6 8.3 4.8 63 3.1 SW 11 15 6 8 1013.8 1012.7 0.0
08/10:30pm 12.9 9.5 4.1 55 4.0 SSW 11 13 6 7 1013.5 1012.4 0.0
08/10:00pm 12.8 9.5 4.3 56 3.9 SSW 11 15 6 8 1013.4 1012.3 0.0
08/09:30pm 12.2 8.9 4.4 59 3.6 SW 11 11 6 6 1012.9 1011.9 0.0
08/09:00pm 14.3 11.1 3.2 47 5.1 SSW 9 13 5 7 1012.4 1011.4 0.0
08/08:30pm 16.0 12.0 2.8 41 6.0 SSW 13 19 7 10 1012.2 1011.1 0.0
08/08:00pm 17.8 13.5 1.3 33 7.4 SSW 13 20 7 11 1011.9 1010.8 0.0
08/07:30pm 19.4 13.3 0.4 28 8.5 SSW 22 33 12 18 1011.4 1010.3 0.0
08/07:00pm 20.2 14.1 0.6 27 8.9 SSW 22 32 12 17 1011.1 1010.0 0.0
08/06:30pm 21.1 15.2 1.4 27 9.1 SSW 22 30 12 16 1010.7 1009.6 0.0
08/06:00pm 21.1 14.7 0.9 26 9.3 SSW 24 33 13 18 1010.4 1009.3 0.0
08/05:30pm 21.6 14.8 0.8 25 9.6 SSW 26 39 14 21 1010.3 1009.2 0.0
08/05:00pm 21.8 15.2 -0.2 23 10.0 SSW 24 37 13 20 1010.4 1009.3 0.0
08/04:30pm 21.8 14.5 -0.2 23 9.9 SSW 28 41 15 22 1010.6 1009.5 0.0
08/04:00pm 22.0 15.4 -0.1 23 10.0 SSW 24 46 13 25 1010.8 1009.7 0.0
08/03:30pm 22.0 15.6 1.1 25 9.7 SSW 24 39 13 21 1011.1 1010.0 0.0
08/03:00pm 21.9 14.1 -0.8 22 10.2 SW 30 43 16 23 1011.3 1010.2 0.0
08/02:30pm 21.2 14.0 1.0 26 9.3 SSW 28 43 15 23 1011.5 1010.4 0.0
08/02:00pm 20.9 13.7 0.7 26 9.2 SSW 28 43 15 23 1011.7 1010.6 0.0
08/01:30pm 20.7 13.9 0.5 26 9.2 SSW 26 39 14 21 1011.7 1010.6 0.0
08/01:00pm 20.1 13.4 1.5 29 8.6 SSW 26 43 14 23 1011.7 1010.6 0.0
08/12:30pm 19.6 12.5 1.6 30 8.3 SSW 28 41 15 22 1012.1 1011.0 0.0
08/12:00pm 18.8 12.2 1.8 32 7.8 SSW 26 35 14 19 1012.1 1011.0 0.0
08/11:30am 18.5 11.9 4.3 39 6.8 SW 28 46 15 25 1012.0 1010.9 0.0
08/11:28am 18.7 12.2 4.5 39 6.9 SSW 28 46 15 25 1012.1 1011.0 0.0
08/11:00am 18.4 12.3 4.9 41 6.6 SW 26 43 14 23 1012.2 1011.1 0.0
08/10:30am 17.2 11.4 6.1 48 5.5 SSW 26 44 14 24 1012.2 1011.1 0.0
08/10:00am 16.7 11.2 7.4 54 4.7 SSW 26 41 14 22 1011.9 1010.8 0.0
08/09:30am 16.0 11.0 8.0 59 4.1 SSW 24 35 13 19 1011.9 1010.8 0.0
08/09:00am 15.1 10.2 8.3 64 3.5 SSW 24 35 13 19 1011.8 1010.7 4.8
08/08:30am 14.4 8.8 8.8 69 2.9 SSW 28 35 15 19 1011.5 1010.4 4.8
08/08:00am 13.6 8.3 8.4 71 2.6 SSW 26 33 14 18 1011.2 1010.1 4.8
08/07:30am 13.3 8.6 9.2 76 2.1 SSW 24 35 13 19 1010.6 1009.5 4.8
08/07:00am 12.7 9.3 9.0 78 1.9 SW 17 24 9 13 1010.2 1009.1 4.8
08/06:30am 12.0 8.9 8.8 81 1.6 SW 15 20 8 11 1009.9 1008.8 4.8
08/06:00am 12.1 8.7 9.1 82 1.5 SW 17 22 9 12 1009.6 1008.5 4.8
08/05:30am 12.8 9.5 9.6 81 1.6 SW 17 24 9 13 1009.1 1008.0 4.8
08/05:00am 13.4 10.8 10.6 83 1.5 SW 15 20 8 11 1008.7 1007.6 4.8
08/04:30am 14.2 12.4 12.1 87 1.1 SW 13 17 7 9 1008.5 1007.4 4.8
08/04:00am 15.1 12.8 13.0 87 1.2 SW 17 20 9 11 1008.1 1007.0 4.8
08/03:30am 15.7 14.0 14.6 93 0.6 WSW 17 22 9 12 1008.0 1006.9 4.8
08/03:00am 15.7 14.9 15.1 96 0.4 W 13 17 7 9 1007.9 1006.8 4.8
08/02:30am 15.7 14.9 15.2 97 0.3 W 13 17 7 9 1007.9 1006.8 4.8
08/02:00am 15.1 14.8 14.3 95 0.5 WNW 9 11 5 6 1007.8 1006.7 4.6
08/01:30am 15.4 15.6 14.6 95 0.5 NW 7 9 4 5 1007.9 1006.8 4.6
08/01:00am 15.9 17.6 15.1 95 0.5 CALM 0 0 0 0 1008.1 1007.0 4.6
08/12:30am 15.7 17.2 14.7 94 0.6 CALM 0 0 0 0 1008.2 1007.1 4.6
08/12:00am 16.1 17.0 15.0 93 0.6 N 4 7 2 4 1008.2 1007.1 4.6
 
Date/Time
EDT
Temp
°C
App
Temp
°C
Dew
Point
°C
Rel
Hum
%
Delta-T
°C
Wind Press
QNH
hPa
Press
MSL
hPa
Rain since
9am
mm
Dir  Spd
km/h
Gust
km/h
Spd
kts
Gust
kts
07/11:30pm 16.4 16.9 15.1 92 0.8 NNE 6 7 3 4 1008.7 1007.6 4.6
07/11:00pm 16.3 16.4 14.5 89 1.0 SSE 7 15 4 8 1008.7 1007.6 4.6
07/10:30pm 16.7 16.3 14.0 84 1.5 S 9 15 5 8 1009.1 1008.0 3.0
07/10:00pm 17.7 17.1 13.6 77 2.4 ESE 9 15 5 8 1007.5 1006.4 0.0
07/09:30pm 18.3 16.5 13.2 72 2.9 SSE 15 20 8 11 1008.1 1007.0 0.0
07/09:00pm 19.3 17.9 12.3 64 4.0 SSE 11 19 6 10 1007.9 1006.8 0.0
07/08:30pm 19.7 19.2 12.7 64 4.0 SE 7 13 4 7 1007.7 1006.6 0.0
07/08:00pm 20.2 19.7 11.9 59 4.7 ESE 6 15 3 8 1007.7 1006.6 0.0
07/07:30pm 20.7 20.0 11.9 57 5.0 ESE 7 13 4 7 1007.2 1006.1 0.0
07/07:00pm 21.8 20.7 12.1 54 5.5 SE 9 15 5 8 1007.3 1006.2 0.0
07/06:30pm 21.9 20.4 11.9 53 5.7 S 11 19 6 10 1007.2 1006.1 0.0
07/06:00pm 22.7 20.3 11.4 49 6.4 S 15 28 8 15 1007.7 1006.6 0.0
07/05:30pm 23.9 20.1 11.3 45 7.1 SSW 22 33 12 18 1007.6 1006.5 0.0
07/05:00pm 24.5 22.1 12.8 48 6.8 S 17 24 9 13 1007.5 1006.4 0.0
07/04:30pm 23.7 20.1 11.7 47 6.8 SSW 22 32 12 17 1008.0 1006.9 0.0
07/04:00pm 23.6 20.1 11.0 45 7.1 SSW 20 33 11 18 1008.0 1006.9 0.0
07/03:30pm 23.8 20.6 11.2 45 7.1 SSW 19 28 10 15 1008.3 1007.3 0.0
07/03:00pm 24.4 20.7 11.4 44 7.4 SW 22 32 12 17 1008.3 1007.3 0.0
07/02:30pm 24.4 19.6 10.3 41 7.9 SSW 26 39 14 21 1008.5 1007.4 0.0
07/02:00pm 25.1 20.3 10.2 39 8.3 SW 26 41 14 22 1008.7 1007.6 0.0
07/01:35pm 25.3 20.0 10.0 38 8.5 SW 28 50 15 27 1008.5 1007.4 0.0
07/01:30pm 25.6 21.1 10.2 38 8.6 SSW 24 35 13 19 1008.2 1007.1 0.0
07/01:00pm 24.7 19.5 9.0 37 8.6 SSW 26 35 14 19 1009.0 1007.9 0.0
07/12:30pm 25.9 21.3 6.5 29 10.2 SW 20 26 11 14 1008.8 1007.7 0.0
07/12:00pm 25.7 21.3 4.8 26 10.7 SW 17 28 9 15 1008.8 1007.7 0.0
07/11:30am 26.0 21.9 4.5 25 10.9 W 15 24 8 13 1008.6 1007.5 0.0
07/11:00am 23.5 20.0 5.4 31 9.2 NW 13 17 7 9 1009.3 1008.2 0.0
07/10:30am 22.8 21.1 5.7 33 8.7 ENE 4 7 2 4 1008.2 1007.1 0.0
07/10:00am 23.3 20.6 5.7 32 9.0 NNE 9 13 5 7 1007.5 1006.4 0.0
07/09:30am 22.8 20.4 7.0 36 8.2 NE 9 11 5 6 1007.8 1006.7 0.0
07/09:00am 19.4 19.2 9.0 51 5.5 CALM 0 0 0 0 1008.6 1007.5 0.0
07/08:30am 18.1 17.7 8.4 53 5.0 CALM 0 0 0 0 1009.1 1008.0 0.0
07/08:00am 17.4 16.8 9.1 58 4.4 NE 2 6 1 3 1008.2 1007.1 0.0
07/07:30am 15.7 15.5 8.9 64 3.5 CALM 0 0 0 0 1007.8 1006.7 0.0
07/07:00am 13.9 13.9 9.9 77 2.1 CALM 0 0 0 0 1007.4 1006.3 0.0
07/06:30am 13.2 11.5 7.4 68 2.9 ENE 6 9 3 5 1007.1 1006.0 0.0
07/06:00am 12.2 11.1 6.9 70 2.6 E 2 7 1 4 1007.2 1006.1 0.0
07/05:30am 12.0 10.7 6.1 67 2.8 E 2 6 1 3 1007.0 1005.9 0.0
07/05:00am 12.5 10.2 5.9 64 3.1 NE 7 11 4 6 1007.2 1006.1 0.0
07/04:30am 11.5 10.6 6.0 69 2.6 CALM 0 0 0 0 1007.2 1006.1 0.0
07/04:00am 12.5 11.4 6.8 68 2.8 ESE 2 6 1 3 1006.9 1005.8 0.0
07/03:30am 12.3 11.5 6.4 67 2.8 CALM 0 0 0 0 1007.3 1006.2 0.0
07/03:00am 12.2 11.4 6.7 69 2.7 CALM 0 0 0 0 1007.3 1006.2 0.0
07/02:30am 11.7 10.6 4.9 63 3.1 CALM 0 0 0 0 1007.5 1006.4 0.0
07/02:00am 12.3 11.3 5.7 64 3.1 CALM 0 0 0 0 1007.7 1006.6 0.0
07/01:30am 12.6 11.7 6.0 64 3.1 CALM 0 0 0 0 1008.1 1007.0 0.0
07/01:00am 13.1 11.9 4.8 57 3.9 CALM 0 0 0 0 1008.3 1007.3 0.0
07/12:30am 13.5 12.6 6.1 61 3.6 CALM 0 0 0 0 1008.5 1007.4 0.0
07/12:00am 13.0 12.2 6.6 65 3.1 CALM 0 0 0 0 1009.0 1007.9 0.0
 
Date/Time
EDT
Temp
°C
App
Temp
°C
Dew
Point
°C
Rel
Hum
%
Delta-T
°C
Wind Press
QNH
hPa
Press
MSL
hPa
Rain since
9am
mm
Dir  Spd
km/h
Gust
km/h
Spd
kts
Gust
kts
06/11:30pm 13.6 12.5 5.3 57 3.9 CALM 0 0 0 0 1009.1 1008.0 0.0
06/11:00pm 14.5 13.5 5.6 55 4.3 CALM 0 0 0 0 1008.9 1007.8 0.0
06/10:30pm 15.6 14.7 6.1 53 4.6 CALM 0 0 0 0 1008.8 1007.7 0.0
06/10:00pm 17.9 16.7 6.4 47 5.8 SE 2 6 1 3 1008.8 1007.7 0.0
06/09:30pm 17.3 15.7 4.6 43 6.1 S 2 9 1 5 1008.6 1007.5 0.0
06/09:00pm 18.3 16.8 3.0 36 7.2 CALM 0 0 0 0 1008.3 1007.3 0.0
06/08:30pm 20.3 18.4 2.6 31 8.3 SSW 2 6 1 3 1008.1 1007.0 0.0
06/08:00pm 22.5 19.2 2.6 27 9.6 SW 9 11 5 6 1007.9 1006.8 0.0
06/07:30pm 25.4 22.1 2.2 22 11.3 SW 9 13 5 7 1007.7 1006.6 0.0
06/07:00pm 26.1 20.9 0.0 18 12.3 WSW 17 22 9 12 1007.6 1006.5 0.0
06/06:30pm 27.3 21.4 -0.7 16 13.1 WSW 20 32 11 17 1007.4 1006.3 0.0
06/06:00pm 26.4 20.6 0.2 18 12.4 WSW 20 30 11 16 1007.3 1006.2 0.0
06/05:30pm 26.7 20.7 -1.2 16 12.9 WSW 20 32 11 17 1007.1 1006.0 0.0
06/05:00pm 27.1 21.6 0.8 18 12.6 SW 19 26 10 14 1007.2 1006.1 0.0
06/04:30pm 28.6 23.0 1.2 17 13.4 WSW 20 32 11 17 1007.4 1006.3 0.0
06/04:00pm 27.9 21.3 -0.2 16 13.3 WSW 24 33 13 18 1007.4 1006.3 0.0
06/03:30pm 27.6 21.0 1.9 19 12.6 WSW 26 35 14 19 1007.5 1006.4 0.0
06/03:00pm 27.5 21.6 1.8 19 12.6 WSW 22 33 12 18 1007.7 1006.6 0.0
06/02:30pm 26.9 21.6 2.1 20 12.1 SSW 19 35 10 19 1008.2 1007.1 0.0
06/02:00pm 26.6 21.1 1.8 20 12.1 WSW 20 30 11 16 1008.3 1007.3 0.0
06/01:30pm 26.7 20.8 1.9 20 12.1 WSW 22 33 12 18 1008.7 1007.6 0.0
06/01:00pm 24.9 19.9 3.5 25 10.6 WSW 19 33 10 18 1009.0 1007.9 0.0
06/12:30pm 24.8 20.0 4.5 27 10.2 WSW 19 30 10 16 1009.4 1008.3 0.0
06/12:00pm 24.3 19.6 5.1 29 9.8 SW 19 32 10 17 1009.5 1008.4 0.0
06/11:30am 23.0 19.6 5.9 33 8.7 SSW 13 22 7 12 1009.6 1008.5 0.0
06/11:00am 22.0 18.2 5.8 35 8.2 SSW 15 26 8 14 1010.1 1009.0 0.0
06/10:30am 21.4 17.7 6.1 37 7.8 SSW 15 26 8 14 1010.1 1009.0 0.0
06/10:00am 21.0 18.3 7.3 41 7.1 SSW 11 20 6 11 1010.2 1009.1 0.0
06/09:30am 19.6 15.8 6.0 41 6.8 SSW 15 24 8 13 1010.2 1009.1 0.0

Other formats

Comma delimited format used in spreadsheet applications
http://www.bom.gov.au/fwo/IDN60801/IDN60801.95710.axf

JavaScript Object Notation format (JSON) in row-major order
http://www.bom.gov.au/fwo/IDN60801/IDN60801.95710.json

Data quality

Most of these data are generated automatically and are frequently updated. Quality checks on data are not normally performed. It is possible for incorrect values to appear. Refer to information at About Latest Weather Observations and please check the disclaimer before using these data.